Portada
METAR-TAF:

METAR-TAF

Aeroports :

Gaya, Índia

latitud: 24-44-40N, longitud: 84-57-04E, altitud: 116 m

Observació

L'informe es va fer fa 51 minuts, a les 21:00 UTC
Vent 4 kt del Sud/Sud-Oest
Temperatura 14°C
Humitat 88%
Pressió 1015 hPa
Visibilitat: 2000 m
boirina

METAR: VEGY 172100Z 20004KT 2000 BR NSC 14/12 Q1015

Hora: 03:21 (21:51 UTC)

Pronòstic

L'informe es va fer fa 7 hores i 51 minuts, a les 14:00 UTC
Pronòstic vàlid del 17 a les 15 UTC al 17 a les 24 UTC
Vent 5 kt del Oest/Nord-Oest
Visibilitat: 2500 m
calitja
Evolucionant progressivament
l' 17 a les 21 UTC al 17 a les 23 UTC
Visibilitat: 1600 m
boirina

TAF: VEGY 171400Z 1715/1724 30005KT 2500 HZ NSC BECMG 1721/1723 1600 BR

Observacions i pronòstics meteorològics de més de 4000 aeroports (METAR i TAF).

Les estacions disponibles són els punts grocs i vermells al mapa.

Posi el ratolí al punt desitjat per veure el nom de l'estació.

Feu clic per veure les observacions i els pronòstics meteorològics.

Per canviar el mapa: feu clic els botons verds amb una creu de color negre per apropar; al botó verd amb un guió per allunyar la imatge; o en les fletxes verdes per a mapes adjacents.


METAR-TAF: